sensor_id;sensor_type;location;lat;lon;timestamp;P1;durP1;ratioP1;P2;durP2;ratioP2
15899;SDS011;8048;50.644;6.184;2023-02-28T00:00:17;4.57;;;4.37;;
15899;SDS011;8048;50.644;6.184;2023-02-28T00:02:43;3.40;;;3.10;;
15899;SDS011;8048;50.644;6.184;2023-02-28T00:05:11;5.43;;;3.90;;
15899;SDS011;8048;50.644;6.184;2023-02-28T00:07:39;3.50;;;3.20;;
15899;SDS011;8048;50.644;6.184;2023-02-28T00:10:05;3.43;;;3.20;;
15899;SDS011;8048;50.644;6.184;2023-02-28T00:12:32;3.07;;;2.87;;
15899;SDS011;8048;50.644;6.184;2023-02-28T00:14:58;7.03;;;3.17;;
15899;SDS011;8048;50.644;6.184;2023-02-28T00:17:24;3.10;;;2.80;;
15899;SDS011;8048;50.644;6.184;2023-02-28T00:19:50;3.93;;;3.03;;
15899;SDS011;8048;50.644;6.184;2023-02-28T00:22:20;2.43;;;2.23;;
15899;SDS011;8048;50.644;6.184;2023-02-28T00:24:46;2.50;;;2.40;;
15899;SDS011;8048;50.644;6.184;2023-02-28T00:27:12;2.90;;;2.70;;
15899;SDS011;8048;50.644;6.184;2023-02-28T00:29:38;4.00;;;2.77;;
15899;SDS011;8048;50.644;6.184;2023-02-28T00:32:04;3.70;;;2.33;;
15899;SDS011;8048;50.644;6.184;2023-02-28T00:34:31;1.97;;;1.87;;
15899;SDS011;8048;50.644;6.184;2023-02-28T00:37:02;3.07;;;2.60;;
15899;SDS011;8048;50.644;6.184;2023-02-28T00:39:33;3.23;;;2.47;;
15899;SDS011;8048;50.644;6.184;2023-02-28T00:42:00;2.93;;;2.57;;
15899;SDS011;8048;50.644;6.184;2023-02-28T00:44:26;2.50;;;2.40;;
15899;SDS011;8048;50.644;6.184;2023-02-28T00:46:51;2.50;;;2.30;;
15899;SDS011;8048;50.644;6.184;2023-02-28T00:49:19;2.37;;;2.20;;
15899;SDS011;8048;50.644;6.184;2023-02-28T00:51:45;2.10;;;2.00;;
15899;SDS011;8048;50.644;6.184;2023-02-28T00:54:11;2.13;;;2.03;;
15899;SDS011;8048;50.644;6.184;2023-02-28T00:56:37;2.57;;;2.33;;
15899;SDS011;8048;50.644;6.184;2023-02-28T00:59:02;2.23;;;2.13;;
15899;SDS011;8048;50.644;6.184;2023-02-28T01:01:28;3.03;;;2.83;;
15899;SDS011;8048;50.644;6.184;2023-02-28T01:03:53;5.53;;;2.70;;
15899;SDS011;8048;50.644;6.184;2023-02-28T01:06:19;2.13;;;2.03;;
15899;SDS011;8048;50.644;6.184;2023-02-28T01:08:44;2.60;;;2.40;;
15899;SDS011;8048;50.644;6.184;2023-02-28T01:11:10;3.23;;;3.00;;
15899;SDS011;8048;50.644;6.184;2023-02-28T01:13:37;2.83;;;2.63;;
15899;SDS011;8048;50.644;6.184;2023-02-28T01:16:03;4.03;;;3.63;;
15899;SDS011;8048;50.644;6.184;2023-02-28T01:18:29;3.27;;;2.67;;
15899;SDS011;8048;50.644;6.184;2023-02-28T01:20:55;5.00;;;2.73;;
15899;SDS011;8048;50.644;6.184;2023-02-28T01:23:21;2.90;;;2.60;;
15899;SDS011;8048;50.644;6.184;2023-02-28T01:25:48;2.60;;;2.40;;
15899;SDS011;8048;50.644;6.184;2023-02-28T01:28:17;4.60;;;3.40;;
15899;SDS011;8048;50.644;6.184;2023-02-28T01:30:42;4.80;;;3.33;;
15899;SDS011;8048;50.644;6.184;2023-02-28T01:33:12;3.57;;;3.23;;
15899;SDS011;8048;50.644;6.184;2023-02-28T01:35:37;4.40;;;3.27;;
15899;SDS011;8048;50.644;6.184;2023-02-28T01:38:03;2.70;;;2.60;;
15899;SDS011;8048;50.644;6.184;2023-02-28T01:40:28;4.03;;;3.30;;
15899;SDS011;8048;50.644;6.184;2023-02-28T01:42:54;5.77;;;3.47;;
15899;SDS011;8048;50.644;6.184;2023-02-28T01:47:52;2.37;;;2.23;;
15899;SDS011;8048;50.644;6.184;2023-02-28T01:50:22;3.57;;;2.73;;
15899;SDS011;8048;50.644;6.184;2023-02-28T01:52:50;2.80;;;2.70;;
15899;SDS011;8048;50.644;6.184;2023-02-28T01:55:19;4.17;;;2.63;;
15899;SDS011;8048;50.644;6.184;2023-02-28T01:57:50;10.87;;;5.50;;
15899;SDS011;8048;50.644;6.184;2023-02-28T02:00:19;3.53;;;3.33;;
15899;SDS011;8048;50.644;6.184;2023-02-28T02:02:48;4.03;;;3.40;;
15899;SDS011;8048;50.644;6.184;2023-02-28T02:05:19;4.37;;;3.90;;
15899;SDS011;8048;50.644;6.184;2023-02-28T02:07:47;3.40;;;2.80;;
15899;SDS011;8048;50.644;6.184;2023-02-28T02:10:20;4.40;;;3.57;;
15899;SDS011;8048;50.644;6.184;2023-02-28T02:15:41;4.67;;;3.97;;
15899;SDS011;8048;50.644;6.184;2023-02-28T02:18:40;8.70;;;3.50;;
15899;SDS011;8048;50.644;6.184;2023-02-28T02:24:14;4.63;;;3.43;;
15899;SDS011;8048;50.644;6.184;2023-02-28T02:35:39;3.83;;;3.60;;
15899;SDS011;8048;50.644;6.184;2023-02-28T02:38:18;4.13;;;3.35;;
15899;SDS011;8048;50.644;6.184;2023-02-28T02:41:16;3.53;;;3.08;;
15899;SDS011;8048;50.644;6.184;2023-02-28T02:43:43;3.60;;;3.27;;
15899;SDS011;8048;50.644;6.184;2023-02-28T02:46:17;3.50;;;2.88;;
15899;SDS011;8048;50.644;6.184;2023-02-28T02:48:47;3.63;;;3.30;;
15899;SDS011;8048;50.644;6.184;2023-02-28T02:51:15;3.70;;;3.28;;
15899;SDS011;8048;50.644;6.184;2023-02-28T02:54:06;3.70;;;3.30;;
15899;SDS011;8048;50.644;6.184;2023-02-28T02:56:35;2.67;;;2.47;;
15899;SDS011;8048;50.644;6.184;2023-02-28T02:59:04;4.38;;;3.60;;
15899;SDS011;8048;50.644;6.184;2023-02-28T03:01:33;3.10;;;2.80;;
15899;SDS011;8048;50.644;6.184;2023-02-28T03:04:02;3.05;;;2.85;;
15899;SDS011;8048;50.644;6.184;2023-02-28T03:06:32;2.20;;;2.10;;
15899;SDS011;8048;50.644;6.184;2023-02-28T03:08:58;2.90;;;2.70;;
15899;SDS011;8048;50.644;6.184;2023-02-28T03:11:25;4.95;;;2.50;;
15899;SDS011;8048;50.644;6.184;2023-02-28T03:17:29;3.03;;;2.17;;
15899;SDS011;8048;50.644;6.184;2023-02-28T03:22:56;3.28;;;3.00;;
15899;SDS011;8048;50.644;6.184;2023-02-28T03:28:27;3.13;;;2.47;;
15899;SDS011;8048;50.644;6.184;2023-02-28T03:33:50;3.17;;;2.95;;
15899;SDS011;8048;50.644;6.184;2023-02-28T03:36:22;4.65;;;2.92;;
15899;SDS011;8048;50.644;6.184;2023-02-28T03:39:06;2.20;;;2.10;;
15899;SDS011;8048;50.644;6.184;2023-02-28T03:41:38;3.13;;;2.60;;
15899;SDS011;8048;50.644;6.184;2023-02-28T03:44:35;2.50;;;2.30;;
15899;SDS011;8048;50.644;6.184;2023-02-28T03:47:12;2.88;;;2.67;;
15899;SDS011;8048;50.644;6.184;2023-02-28T03:49:45;2.58;;;2.10;;
15899;SDS011;8048;50.644;6.184;2023-02-28T03:52:15;3.42;;;2.15;;
15899;SDS011;8048;50.644;6.184;2023-02-28T03:54:45;2.60;;;2.40;;
15899;SDS011;8048;50.644;6.184;2023-02-28T03:57:25;3.08;;;2.78;;
15899;SDS011;8048;50.644;6.184;2023-02-28T04:00:03;2.53;;;2.33;;
15899;SDS011;8048;50.644;6.184;2023-02-28T04:02:35;3.40;;;3.10;;
15899;SDS011;8048;50.644;6.184;2023-02-28T04:05:01;4.10;;;2.20;;
15899;SDS011;8048;50.644;6.184;2023-02-28T04:07:28;2.80;;;2.60;;
15899;SDS011;8048;50.644;6.184;2023-02-28T04:09:55;2.40;;;2.20;;
15899;SDS011;8048;50.644;6.184;2023-02-28T04:12:21;5.07;;;2.90;;
15899;SDS011;8048;50.644;6.184;2023-02-28T04:14:48;4.75;;;3.90;;
15899;SDS011;8048;50.644;6.184;2023-02-28T04:17:13;2.73;;;2.60;;
15899;SDS011;8048;50.644;6.184;2023-02-28T04:19:39;5.30;;;2.70;;
15899;SDS011;8048;50.644;6.184;2023-02-28T04:22:05;5.50;;;2.50;;
15899;SDS011;8048;50.644;6.184;2023-02-28T04:24:31;4.00;;;3.70;;
15899;SDS011;8048;50.644;6.184;2023-02-28T04:26:57;2.70;;;2.50;;
15899;SDS011;8048;50.644;6.184;2023-02-28T04:31:52;2.85;;;2.65;;
15899;SDS011;8048;50.644;6.184;2023-02-28T04:34:19;2.97;;;2.72;;
15899;SDS011;8048;50.644;6.184;2023-02-28T04:36:46;3.92;;;3.60;;
15899;SDS011;8048;50.644;6.184;2023-02-28T04:39:14;4.13;;;3.83;;
15899;SDS011;8048;50.644;6.184;2023-02-28T04:41:40;4.07;;;3.78;;
15899;SDS011;8048;50.644;6.184;2023-02-28T04:44:06;3.90;;;3.60;;
15899;SDS011;8048;50.644;6.184;2023-02-28T04:46:31;4.67;;;2.77;;
15899;SDS011;8048;50.644;6.184;2023-02-28T04:48:57;4.17;;;3.77;;
15899;SDS011;8048;50.644;6.184;2023-02-28T04:51:23;3.33;;;3.13;;
15899;SDS011;8048;50.644;6.184;2023-02-28T04:53:49;3.83;;;3.47;;
15899;SDS011;8048;50.644;6.184;2023-02-28T04:56:16;5.03;;;3.30;;
15899;SDS011;8048;50.644;6.184;2023-02-28T04:58:43;2.72;;;2.53;;
15899;SDS011;8048;50.644;6.184;2023-02-28T05:01:25;3.17;;;2.97;;
15899;SDS011;8048;50.644;6.184;2023-02-28T05:03:53;2.97;;;2.72;;
15899;SDS011;8048;50.644;6.184;2023-02-28T05:06:20;3.25;;;3.05;;
15899;SDS011;8048;50.644;6.184;2023-02-28T05:08:48;2.90;;;2.70;;
15899;SDS011;8048;50.644;6.184;2023-02-28T05:11:18;3.47;;;3.10;;
15899;SDS011;8048;50.644;6.184;2023-02-28T05:13:58;3.95;;;3.28;;
15899;SDS011;8048;50.644;6.184;2023-02-28T05:16:24;3.40;;;2.90;;
15899;SDS011;8048;50.644;6.184;2023-02-28T05:18:49;4.97;;;4.60;;
15899;SDS011;8048;50.644;6.184;2023-02-28T05:21:25;3.07;;;2.77;;
15899;SDS011;8048;50.644;6.184;2023-02-28T05:24:03;3.47;;;3.28;;
15899;SDS011;8048;50.644;6.184;2023-02-28T05:26:34;2.67;;;2.47;;
15899;SDS011;8048;50.644;6.184;2023-02-28T05:29:01;2.35;;;2.20;;
15899;SDS011;8048;50.644;6.184;2023-02-28T05:31:26;3.20;;;2.90;;
15899;SDS011;8048;50.644;6.184;2023-02-28T05:33:52;4.47;;;2.97;;
15899;SDS011;8048;50.644;6.184;2023-02-28T05:36:18;3.93;;;2.90;;
15899;SDS011;8048;50.644;6.184;2023-02-28T05:38:45;5.45;;;2.67;;
15899;SDS011;8048;50.644;6.184;2023-02-28T05:41:15;2.88;;;2.67;;
15899;SDS011;8048;50.644;6.184;2023-02-28T05:43:41;2.90;;;2.70;;
15899;SDS011;8048;50.644;6.184;2023-02-28T05:46:08;4.17;;;3.47;;
15899;SDS011;8048;50.644;6.184;2023-02-28T05:48:35;2.80;;;2.60;;
15899;SDS011;8048;50.644;6.184;2023-02-28T05:51:02;2.88;;;2.75;;
15899;SDS011;8048;50.644;6.184;2023-02-28T05:53:29;2.92;;;2.70;;
15899;SDS011;8048;50.644;6.184;2023-02-28T05:55:55;3.65;;;3.20;;
15899;SDS011;8048;50.644;6.184;2023-02-28T05:58:20;5.40;;;3.30;;
15899;SDS011;8048;50.644;6.184;2023-02-28T06:00:47;3.70;;;3.40;;
15899;SDS011;8048;50.644;6.184;2023-02-28T06:03:13;3.25;;;2.95;;
15899;SDS011;8048;50.644;6.184;2023-02-28T06:05:38;4.60;;;3.80;;
15899;SDS011;8048;50.644;6.184;2023-02-28T06:08:04;3.97;;;3.17;;
15899;SDS011;8048;50.644;6.184;2023-02-28T06:10:33;4.13;;;3.65;;
15899;SDS011;8048;50.644;6.184;2023-02-28T06:13:00;4.07;;;3.55;;
15899;SDS011;8048;50.644;6.184;2023-02-28T06:15:27;3.22;;;2.92;;
15899;SDS011;8048;50.644;6.184;2023-02-28T06:17:53;4.00;;;3.70;;
15899;SDS011;8048;50.644;6.184;2023-02-28T06:20:18;4.07;;;3.67;;
15899;SDS011;8048;50.644;6.184;2023-02-28T06:22:44;4.23;;;3.93;;
15899;SDS011;8048;50.644;6.184;2023-02-28T06:25:09;2.67;;;2.43;;
15899;SDS011;8048;50.644;6.184;2023-02-28T06:27:35;3.45;;;3.22;;
15899;SDS011;8048;50.644;6.184;2023-02-28T06:30:01;4.13;;;3.70;;
15899;SDS011;8048;50.644;6.184;2023-02-28T06:32:27;4.70;;;4.30;;
15899;SDS011;8048;50.644;6.184;2023-02-28T06:34:52;5.47;;;3.43;;
15899;SDS011;8048;50.644;6.184;2023-02-28T06:37:18;4.07;;;3.70;;
15899;SDS011;8048;50.644;6.184;2023-02-28T06:39:44;4.13;;;3.73;;
15899;SDS011;8048;50.644;6.184;2023-02-28T06:42:09;3.43;;;3.13;;
15899;SDS011;8048;50.644;6.184;2023-02-28T06:44:35;3.57;;;3.27;;
15899;SDS011;8048;50.644;6.184;2023-02-28T06:47:01;3.10;;;2.87;;
15899;SDS011;8048;50.644;6.184;2023-02-28T06:49:29;3.22;;;3.00;;
15899;SDS011;8048;50.644;6.184;2023-02-28T06:51:55;3.50;;;3.22;;
15899;SDS011;8048;50.644;6.184;2023-02-28T06:54:21;3.23;;;3.03;;
15899;SDS011;8048;50.644;6.184;2023-02-28T06:56:46;3.90;;;3.60;;
15899;SDS011;8048;50.644;6.184;2023-02-28T06:59:12;3.30;;;3.03;;
15899;SDS011;8048;50.644;6.184;2023-02-28T07:01:38;3.00;;;2.77;;
15899;SDS011;8048;50.644;6.184;2023-02-28T07:04:05;2.47;;;2.38;;
15899;SDS011;8048;50.644;6.184;2023-02-28T07:06:31;2.72;;;2.60;;
15899;SDS011;8048;50.644;6.184;2023-02-28T07:08:57;3.80;;;2.30;;
15899;SDS011;8048;50.644;6.184;2023-02-28T07:11:24;2.80;;;2.43;;
15899;SDS011;8048;50.644;6.184;2023-02-28T07:13:54;2.80;;;2.60;;
15899;SDS011;8048;50.644;6.184;2023-02-28T07:16:20;2.60;;;2.40;;
15899;SDS011;8048;50.644;6.184;2023-02-28T07:18:47;2.50;;;2.28;;
15899;SDS011;8048;50.644;6.184;2023-02-28T07:21:13;2.72;;;2.40;;
15899;SDS011;8048;50.644;6.184;2023-02-28T07:23:39;3.13;;;2.87;;
15899;SDS011;8048;50.644;6.184;2023-02-28T07:26:06;3.88;;;3.13;;
15899;SDS011;8048;50.644;6.184;2023-02-28T07:28:36;3.40;;;2.65;;
15899;SDS011;8048;50.644;6.184;2023-02-28T07:31:05;7.00;;;3.13;;
15899;SDS011;8048;50.644;6.184;2023-02-28T07:33:32;2.50;;;2.30;;
15899;SDS011;8048;50.644;6.184;2023-02-28T07:36:09;2.92;;;2.72;;
15899;SDS011;8048;50.644;6.184;2023-02-28T07:38:40;2.40;;;2.30;;
15899;SDS011;8048;50.644;6.184;2023-02-28T07:41:07;2.50;;;2.40;;
15899;SDS011;8048;50.644;6.184;2023-02-28T07:43:33;2.87;;;2.63;;
15899;SDS011;8048;50.644;6.184;2023-02-28T07:46:06;2.40;;;2.20;;
15899;SDS011;8048;50.644;6.184;2023-02-28T07:48:34;2.00;;;1.90;;
15899;SDS011;8048;50.644;6.184;2023-02-28T07:51:00;4.43;;;2.50;;
15899;SDS011;8048;50.644;6.184;2023-02-28T07:55:56;6.55;;;3.00;;
15899;SDS011;8048;50.644;6.184;2023-02-28T07:58:23;6.15;;;2.90;;
15899;SDS011;8048;50.644;6.184;2023-02-28T08:00:49;3.25;;;2.95;;
15899;SDS011;8048;50.644;6.184;2023-02-28T08:03:16;2.53;;;2.40;;
15899;SDS011;8048;50.644;6.184;2023-02-28T08:05:43;5.60;;;3.28;;
15899;SDS011;8048;50.644;6.184;2023-02-28T08:08:08;4.00;;;2.30;;
15899;SDS011;8048;50.644;6.184;2023-02-28T08:10:34;3.17;;;2.97;;
15899;SDS011;8048;50.644;6.184;2023-02-28T08:13:00;2.83;;;2.73;;
15899;SDS011;8048;50.644;6.184;2023-02-28T08:15:25;3.43;;;2.90;;
15899;SDS011;8048;50.644;6.184;2023-02-28T08:17:51;2.80;;;2.60;;
15899;SDS011;8048;50.644;6.184;2023-02-28T08:20:17;3.30;;;3.07;;
15899;SDS011;8048;50.644;6.184;2023-02-28T08:22:42;2.20;;;2.10;;
15899;SDS011;8048;50.644;6.184;2023-02-28T08:25:08;3.13;;;2.93;;
15899;SDS011;8048;50.644;6.184;2023-02-28T08:27:34;2.60;;;2.40;;
15899;SDS011;8048;50.644;6.184;2023-02-28T08:30:00;3.53;;;3.07;;
15899;SDS011;8048;50.644;6.184;2023-02-28T08:32:25;3.63;;;2.60;;
15899;SDS011;8048;50.644;6.184;2023-02-28T08:34:51;3.83;;;3.40;;
15899;SDS011;8048;50.644;6.184;2023-02-28T08:37:16;3.13;;;2.93;;
15899;SDS011;8048;50.644;6.184;2023-02-28T08:39:42;4.93;;;3.30;;
15899;SDS011;8048;50.644;6.184;2023-02-28T08:42:08;2.60;;;2.40;;
15899;SDS011;8048;50.644;6.184;2023-02-28T08:44:33;3.27;;;2.20;;
15899;SDS011;8048;50.644;6.184;2023-02-28T08:46:59;3.43;;;2.67;;
15899;SDS011;8048;50.644;6.184;2023-02-28T08:49:24;2.87;;;2.70;;
15899;SDS011;8048;50.644;6.184;2023-02-28T08:51:50;3.87;;;3.53;;
15899;SDS011;8048;50.644;6.184;2023-02-28T08:54:16;5.00;;;3.20;;
15899;SDS011;8048;50.644;6.184;2023-02-28T08:56:44;2.20;;;2.00;;
15899;SDS011;8048;50.644;6.184;2023-02-28T08:59:11;2.30;;;2.13;;
15899;SDS011;8048;50.644;6.184;2023-02-28T09:01:36;2.80;;;2.60;;
15899;SDS011;8048;50.644;6.184;2023-02-28T09:04:02;1.83;;;1.73;;
15899;SDS011;8048;50.644;6.184;2023-02-28T09:06:28;3.10;;;2.80;;
15899;SDS011;8048;50.644;6.184;2023-02-28T09:08:56;2.37;;;2.27;;
15899;SDS011;8048;50.644;6.184;2023-02-28T09:11:26;2.90;;;2.70;;
15899;SDS011;8048;50.644;6.184;2023-02-28T09:13:52;3.73;;;3.43;;
15899;SDS011;8048;50.644;6.184;2023-02-28T09:16:18;3.50;;;3.20;;
15899;SDS011;8048;50.644;6.184;2023-02-28T09:18:44;2.63;;;2.50;;
15899;SDS011;8048;50.644;6.184;2023-02-28T09:21:11;2.80;;;2.60;;
15899;SDS011;8048;50.644;6.184;2023-02-28T09:23:42;2.40;;;2.30;;
15899;SDS011;8048;50.644;6.184;2023-02-28T09:26:12;4.23;;;3.00;;
15899;SDS011;8048;50.644;6.184;2023-02-28T09:28:48;2.80;;;2.50;;
15899;SDS011;8048;50.644;6.184;2023-02-28T09:31:15;3.33;;;2.30;;
15899;SDS011;8048;50.644;6.184;2023-02-28T09:33:45;2.90;;;2.50;;
15899;SDS011;8048;50.644;6.184;2023-02-28T09:36:12;2.83;;;2.57;;
15899;SDS011;8048;50.644;6.184;2023-02-28T09:38:37;2.13;;;2.03;;
15899;SDS011;8048;50.644;6.184;2023-02-28T09:41:08;2.83;;;2.27;;
15899;SDS011;8048;50.644;6.184;2023-02-28T09:43:39;2.90;;;2.70;;
15899;SDS011;8048;50.644;6.184;2023-02-28T09:46:14;2.90;;;2.70;;
15899;SDS011;8048;50.644;6.184;2023-02-28T09:48:44;3.67;;;2.77;;
15899;SDS011;8048;50.644;6.184;2023-02-28T09:53:56;3.70;;;2.33;;
15899;SDS011;8048;50.644;6.184;2023-02-28T09:56:24;2.47;;;2.37;;
15899;SDS011;8048;50.644;6.184;2023-02-28T10:06:50;6.80;;;3.40;;
15899;SDS011;8048;50.644;6.184;2023-02-28T10:09:21;3.00;;;2.80;;
15899;SDS011;8048;50.644;6.184;2023-02-28T10:11:50;2.60;;;2.40;;
15899;SDS011;8048;50.644;6.184;2023-02-28T10:14:19;3.57;;;3.27;;
15899;SDS011;8048;50.644;6.184;2023-02-28T10:19:31;2.77;;;2.57;;
15899;SDS011;8048;50.644;6.184;2023-02-28T10:22:08;3.03;;;2.83;;
15899;SDS011;8048;50.644;6.184;2023-02-28T10:24:40;2.50;;;2.30;;
15899;SDS011;8048;50.644;6.184;2023-02-28T10:27:13;3.60;;;3.40;;
15899;SDS011;8048;50.644;6.184;2023-02-28T10:29:47;3.07;;;2.87;;
15899;SDS011;8048;50.644;6.184;2023-02-28T10:32:21;3.57;;;2.87;;
15899;SDS011;8048;50.644;6.184;2023-02-28T10:34:52;2.97;;;2.37;;
15899;SDS011;8048;50.644;6.184;2023-02-28T10:37:41;2.27;;;2.17;;
15899;SDS011;8048;50.644;6.184;2023-02-28T10:43:04;2.23;;;2.07;;
15899;SDS011;8048;50.644;6.184;2023-02-28T10:48:32;2.67;;;2.53;;
15899;SDS011;8048;50.644;6.184;2023-02-28T10:51:04;3.23;;;2.77;;
15899;SDS011;8048;50.644;6.184;2023-02-28T10:53:46;3.77;;;3.53;;
15899;SDS011;8048;50.644;6.184;2023-02-28T10:56:16;3.27;;;3.10;;
15899;SDS011;8048;50.644;6.184;2023-02-28T11:01:45;3.50;;;3.20;;
15899;SDS011;8048;50.644;6.184;2023-02-28T11:07:02;3.43;;;3.13;;
15899;SDS011;8048;50.644;6.184;2023-02-28T11:12:04;2.60;;;2.43;;
15899;SDS011;8048;50.644;6.184;2023-02-28T11:14:33;3.30;;;3.00;;
15899;SDS011;8048;50.644;6.184;2023-02-28T11:17:24;3.47;;;3.13;;
15899;SDS011;8048;50.644;6.184;2023-02-28T11:20:02;3.10;;;2.90;;
15899;SDS011;8048;50.644;6.184;2023-02-28T11:22:37;2.87;;;2.57;;
15899;SDS011;8048;50.644;6.184;2023-02-28T11:25:09;3.43;;;3.17;;
15899;SDS011;8048;50.644;6.184;2023-02-28T11:27:54;3.10;;;2.90;;
15899;SDS011;8048;50.644;6.184;2023-02-28T11:32:59;2.83;;;2.60;;
15899;SDS011;8048;50.644;6.184;2023-02-28T11:35:33;3.60;;;3.23;;
15899;SDS011;8048;50.644;6.184;2023-02-28T11:38:04;3.73;;;3.53;;
15899;SDS011;8048;50.644;6.184;2023-02-28T11:51:35;3.00;;;2.90;;
15899;SDS011;8048;50.644;6.184;2023-02-28T11:54:24;3.63;;;3.37;;
15899;SDS011;8048;50.644;6.184;2023-02-28T11:57:17;4.60;;;3.90;;
15899;SDS011;8048;50.644;6.184;2023-02-28T12:00:02;5.60;;;3.10;;
15899;SDS011;8048;50.644;6.184;2023-02-28T12:05:31;3.23;;;3.00;;
15899;SDS011;8048;50.644;6.184;2023-02-28T12:08:15;3.20;;;3.00;;
15899;SDS011;8048;50.644;6.184;2023-02-28T12:13:24;3.43;;;3.13;;
15899;SDS011;8048;50.644;6.184;2023-02-28T12:18:28;4.30;;;3.90;;
15899;SDS011;8048;50.644;6.184;2023-02-28T12:21:11;4.13;;;3.73;;
15899;SDS011;8048;50.644;6.184;2023-02-28T12:23:56;5.00;;;3.33;;
15899;SDS011;8048;50.644;6.184;2023-02-28T12:26:29;3.63;;;3.33;;
15899;SDS011;8048;50.644;6.184;2023-02-28T12:28:58;3.73;;;3.43;;
15899;SDS011;8048;50.644;6.184;2023-02-28T12:31:36;3.60;;;3.37;;
15899;SDS011;8048;50.644;6.184;2023-02-28T12:34:10;3.23;;;3.00;;
15899;SDS011;8048;50.644;6.184;2023-02-28T12:36:41;3.50;;;3.30;;
15899;SDS011;8048;50.644;6.184;2023-02-28T12:39:30;3.67;;;3.37;;
15899;SDS011;8048;50.644;6.184;2023-02-28T12:42:09;3.57;;;3.27;;
15899;SDS011;8048;50.644;6.184;2023-02-28T12:44:40;4.37;;;3.90;;
15899;SDS011;8048;50.644;6.184;2023-02-28T12:47:15;3.97;;;3.57;;
15899;SDS011;8048;50.644;6.184;2023-02-28T12:52:35;3.60;;;3.30;;
15899;SDS011;8048;50.644;6.184;2023-02-28T12:55:23;3.17;;;2.97;;
15899;SDS011;8048;50.644;6.184;2023-02-28T13:01:12;3.70;;;3.40;;
15899;SDS011;8048;50.644;6.184;2023-02-28T13:09:51;4.00;;;3.60;;
15899;SDS011;8048;50.644;6.184;2023-02-28T13:12:18;2.83;;;2.73;;
15899;SDS011;8048;50.644;6.184;2023-02-28T13:14:45;3.43;;;3.20;;
15899;SDS011;8048;50.644;6.184;2023-02-28T13:17:12;3.07;;;2.93;;
15899;SDS011;8048;50.644;6.184;2023-02-28T13:19:45;3.50;;;3.30;;
15899;SDS011;8048;50.644;6.184;2023-02-28T13:22:16;3.67;;;3.40;;
15899;SDS011;8048;50.644;6.184;2023-02-28T13:25:03;3.40;;;3.23;;
15899;SDS011;8048;50.644;6.184;2023-02-28T13:27:57;4.10;;;3.80;;
15899;SDS011;8048;50.644;6.184;2023-02-28T13:35:44;3.50;;;3.30;;
15899;SDS011;8048;50.644;6.184;2023-02-28T13:38:16;3.30;;;3.10;;
15899;SDS011;8048;50.644;6.184;2023-02-28T13:40:49;3.27;;;3.07;;
15899;SDS011;8048;50.644;6.184;2023-02-28T13:43:16;2.80;;;2.60;;
15899;SDS011;8048;50.644;6.184;2023-02-28T13:48:46;3.90;;;3.60;;
15899;SDS011;8048;50.644;6.184;2023-02-28T13:51:28;3.27;;;3.10;;
15899;SDS011;8048;50.644;6.184;2023-02-28T14:00:07;3.90;;;3.60;;
15899;SDS011;8048;50.644;6.184;2023-02-28T14:05:20;4.20;;;3.97;;
15899;SDS011;8048;50.644;6.184;2023-02-28T14:07:51;3.60;;;3.40;;
15899;SDS011;8048;50.644;6.184;2023-02-28T14:10:23;4.50;;;4.20;;
15899;SDS011;8048;50.644;6.184;2023-02-28T14:18:40;3.83;;;3.63;;
15899;SDS011;8048;50.644;6.184;2023-02-28T14:26:31;4.47;;;4.07;;
15899;SDS011;8048;50.644;6.184;2023-02-28T14:32:13;3.53;;;3.33;;
15899;SDS011;8048;50.644;6.184;2023-02-28T14:35:02;3.17;;;2.97;;
15899;SDS011;8048;50.644;6.184;2023-02-28T14:37:33;3.53;;;3.33;;
15899;SDS011;8048;50.644;6.184;2023-02-28T14:40:02;4.40;;;4.10;;
15899;SDS011;8048;50.644;6.184;2023-02-28T14:44:56;3.27;;;3.07;;
15899;SDS011;8048;50.644;6.184;2023-02-28T14:47:22;3.73;;;3.53;;
15899;SDS011;8048;50.644;6.184;2023-02-28T14:49:50;3.60;;;3.40;;
15899;SDS011;8048;50.644;6.184;2023-02-28T14:52:29;3.50;;;3.27;;
15899;SDS011;8048;50.644;6.184;2023-02-28T14:54:58;3.47;;;3.27;;
15899;SDS011;8048;50.644;6.184;2023-02-28T14:57:32;3.30;;;3.20;;
15899;SDS011;8048;50.644;6.184;2023-02-28T15:00:02;3.57;;;3.37;;
15899;SDS011;8048;50.644;6.184;2023-02-28T15:02:46;3.40;;;3.20;;
15899;SDS011;8048;50.644;6.184;2023-02-28T15:07:38;3.57;;;3.37;;
15899;SDS011;8048;50.644;6.184;2023-02-28T15:12:40;3.67;;;3.47;;
15899;SDS011;8048;50.644;6.184;2023-02-28T15:15:13;4.30;;;4.00;;
15899;SDS011;8048;50.644;6.184;2023-02-28T15:17:40;3.63;;;3.43;;
15899;SDS011;8048;50.644;6.184;2023-02-28T15:20:12;4.43;;;4.10;;
15899;SDS011;8048;50.644;6.184;2023-02-28T15:22:40;3.97;;;3.67;;
15899;SDS011;8048;50.644;6.184;2023-02-28T15:25:05;3.73;;;3.43;;
15899;SDS011;8048;50.644;6.184;2023-02-28T15:27:33;3.43;;;3.20;;
15899;SDS011;8048;50.644;6.184;2023-02-28T15:30:06;6.17;;;3.37;;
15899;SDS011;8048;50.644;6.184;2023-02-28T15:32:38;6.23;;;3.60;;
15899;SDS011;8048;50.644;6.184;2023-02-28T15:40:46;3.67;;;3.37;;
15899;SDS011;8048;50.644;6.184;2023-02-28T15:43:31;3.50;;;3.30;;
15899;SDS011;8048;50.644;6.184;2023-02-28T15:46:02;3.60;;;3.30;;
15899;SDS011;8048;50.644;6.184;2023-02-28T15:48:35;3.73;;;3.40;;
15899;SDS011;8048;50.644;6.184;2023-02-28T15:51:08;3.80;;;3.50;;
15899;SDS011;8048;50.644;6.184;2023-02-28T15:56:20;4.50;;;3.73;;
15899;SDS011;8048;50.644;6.184;2023-02-28T15:58:55;4.50;;;4.20;;
15899;SDS011;8048;50.644;6.184;2023-02-28T16:01:38;4.27;;;3.97;;
15899;SDS011;8048;50.644;6.184;2023-02-28T16:04:17;6.20;;;3.53;;
15899;SDS011;8048;50.644;6.184;2023-02-28T16:06:45;4.47;;;4.07;;
15899;SDS011;8048;50.644;6.184;2023-02-28T16:09:12;4.60;;;3.77;;
15899;SDS011;8048;50.644;6.184;2023-02-28T16:11:47;3.97;;;3.67;;
15899;SDS011;8048;50.644;6.184;2023-02-28T16:14:16;4.50;;;4.10;;
15899;SDS011;8048;50.644;6.184;2023-02-28T16:16:48;4.13;;;3.83;;
15899;SDS011;8048;50.644;6.184;2023-02-28T16:19:16;4.03;;;3.73;;
15899;SDS011;8048;50.644;6.184;2023-02-28T16:21:42;4.13;;;3.77;;
15899;SDS011;8048;50.644;6.184;2023-02-28T16:24:08;3.90;;;3.60;;
15899;SDS011;8048;50.644;6.184;2023-02-28T16:26:33;3.17;;;2.97;;
15899;SDS011;8048;50.644;6.184;2023-02-28T16:29:00;3.43;;;3.23;;
15899;SDS011;8048;50.644;6.184;2023-02-28T16:31:27;3.87;;;3.57;;
15899;SDS011;8048;50.644;6.184;2023-02-28T16:33:53;3.93;;;3.70;;
15899;SDS011;8048;50.644;6.184;2023-02-28T16:36:20;3.30;;;3.10;;
15899;SDS011;8048;50.644;6.184;2023-02-28T16:38:48;4.00;;;3.70;;
15899;SDS011;8048;50.644;6.184;2023-02-28T16:41:20;3.67;;;3.40;;
15899;SDS011;8048;50.644;6.184;2023-02-28T16:43:48;3.40;;;3.20;;
15899;SDS011;8048;50.644;6.184;2023-02-28T16:46:16;4.07;;;3.77;;
15899;SDS011;8048;50.644;6.184;2023-02-28T16:48:42;3.77;;;3.50;;
15899;SDS011;8048;50.644;6.184;2023-02-28T16:51:13;4.23;;;3.90;;
15899;SDS011;8048;50.644;6.184;2023-02-28T16:53:39;3.60;;;3.40;;
15899;SDS011;8048;50.644;6.184;2023-02-28T16:56:05;4.37;;;3.97;;
15899;SDS011;8048;50.644;6.184;2023-02-28T16:58:32;4.33;;;4.03;;
15899;SDS011;8048;50.644;6.184;2023-02-28T17:01:00;6.93;;;4.53;;
15899;SDS011;8048;50.644;6.184;2023-02-28T17:03:27;4.37;;;4.07;;
15899;SDS011;8048;50.644;6.184;2023-02-28T17:05:53;5.23;;;4.73;;
15899;SDS011;8048;50.644;6.184;2023-02-28T17:08:19;4.40;;;4.10;;
15899;SDS011;8048;50.644;6.184;2023-02-28T17:10:45;4.90;;;4.50;;
15899;SDS011;8048;50.644;6.184;2023-02-28T17:13:10;5.53;;;4.10;;
15899;SDS011;8048;50.644;6.184;2023-02-28T17:15:36;3.90;;;3.60;;
15899;SDS011;8048;50.644;6.184;2023-02-28T17:18:03;3.90;;;3.60;;
15899;SDS011;8048;50.644;6.184;2023-02-28T17:20:29;5.90;;;5.30;;
15899;SDS011;8048;50.644;6.184;2023-02-28T17:22:55;4.93;;;4.20;;
15899;SDS011;8048;50.644;6.184;2023-02-28T17:25:21;5.10;;;4.50;;
15899;SDS011;8048;50.644;6.184;2023-02-28T17:27:48;5.43;;;4.03;;
15899;SDS011;8048;50.644;6.184;2023-02-28T17:32:42;4.97;;;4.40;;
15899;SDS011;8048;50.644;6.184;2023-02-28T17:35:08;5.70;;;5.23;;
15899;SDS011;8048;50.644;6.184;2023-02-28T17:37:34;6.13;;;5.63;;
15899;SDS011;8048;50.644;6.184;2023-02-28T17:39:59;6.63;;;6.03;;